sensor_id;sensor_type;location;lat;lon;timestamp;P1;durP1;ratioP1;P2;durP2;ratioP2
52620;SDS011;38515;53.160;6.990;2024-01-11T00:00:28;451.35;;;428.92;;
52620;SDS011;38515;53.160;6.990;2024-01-11T00:02:54;450.98;;;429.75;;
52620;SDS011;38515;53.160;6.990;2024-01-11T00:05:19;455.85;;;435.33;;
52620;SDS011;38515;53.160;6.990;2024-01-11T00:07:46;461.40;;;439.67;;
52620;SDS011;38515;53.160;6.990;2024-01-11T00:10:12;468.85;;;447.48;;
52620;SDS011;38515;53.160;6.990;2024-01-11T00:12:38;470.95;;;449.70;;
52620;SDS011;38515;53.160;6.990;2024-01-11T00:15:03;482.05;;;459.58;;
52620;SDS011;38515;53.160;6.990;2024-01-11T00:17:29;485.58;;;463.15;;
52620;SDS011;38515;53.160;6.990;2024-01-11T00:19:55;468.85;;;446.98;;
52620;SDS011;38515;53.160;6.990;2024-01-11T00:22:21;482.00;;;458.98;;
52620;SDS011;38515;53.160;6.990;2024-01-11T00:24:46;438.75;;;419.20;;
52620;SDS011;38515;53.160;6.990;2024-01-11T00:27:12;383.38;;;366.13;;
52620;SDS011;38515;53.160;6.990;2024-01-11T00:29:37;431.60;;;412.40;;
52620;SDS011;38515;53.160;6.990;2024-01-11T00:32:03;413.13;;;393.67;;
52620;SDS011;38515;53.160;6.990;2024-01-11T00:34:29;414.10;;;396.20;;
52620;SDS011;38515;53.160;6.990;2024-01-11T00:36:55;635.70;;;599.78;;
52620;SDS011;38515;53.160;6.990;2024-01-11T00:39:21;588.17;;;557.58;;
52620;SDS011;38515;53.160;6.990;2024-01-11T00:41:46;499.50;;;474.35;;
52620;SDS011;38515;53.160;6.990;2024-01-11T00:44:12;507.98;;;481.00;;
52620;SDS011;38515;53.160;6.990;2024-01-11T00:46:39;670.33;;;634.42;;
52620;SDS011;38515;53.160;6.990;2024-01-11T00:49:06;569.25;;;540.22;;
52620;SDS011;38515;53.160;6.990;2024-01-11T00:51:32;618.50;;;585.80;;
52620;SDS011;38515;53.160;6.990;2024-01-11T00:53:57;588.58;;;557.80;;
52620;SDS011;38515;53.160;6.990;2024-01-11T00:56:23;565.33;;;535.50;;
52620;SDS011;38515;53.160;6.990;2024-01-11T00:58:49;552.90;;;525.85;;
52620;SDS011;38515;53.160;6.990;2024-01-11T01:01:14;551.95;;;523.17;;
52620;SDS011;38515;53.160;6.990;2024-01-11T01:03:40;554.80;;;527.55;;
52620;SDS011;38515;53.160;6.990;2024-01-11T01:06:06;524.10;;;498.63;;
52620;SDS011;38515;53.160;6.990;2024-01-11T01:08:31;528.10;;;502.60;;
52620;SDS011;38515;53.160;6.990;2024-01-11T01:10:58;533.85;;;507.48;;
52620;SDS011;38515;53.160;6.990;2024-01-11T01:13:23;512.42;;;487.35;;
52620;SDS011;38515;53.160;6.990;2024-01-11T01:15:49;477.55;;;453.85;;
52620;SDS011;38515;53.160;6.990;2024-01-11T01:18:15;581.20;;;551.35;;
52620;SDS011;38515;53.160;6.990;2024-01-11T01:20:41;469.60;;;447.65;;
52620;SDS011;38515;53.160;6.990;2024-01-11T01:23:06;486.08;;;463.38;;
52620;SDS011;38515;53.160;6.990;2024-01-11T01:25:32;430.05;;;410.17;;
52620;SDS011;38515;53.160;6.990;2024-01-11T01:27:57;438.42;;;419.38;;
52620;SDS011;38515;53.160;6.990;2024-01-11T01:30:25;452.88;;;432.75;;
52620;SDS011;38515;53.160;6.990;2024-01-11T01:32:51;465.48;;;443.15;;
52620;SDS011;38515;53.160;6.990;2024-01-11T01:35:17;467.63;;;445.63;;
52620;SDS011;38515;53.160;6.990;2024-01-11T01:37:43;469.75;;;448.42;;
52620;SDS011;38515;53.160;6.990;2024-01-11T01:40:10;486.35;;;462.58;;
52620;SDS011;38515;53.160;6.990;2024-01-11T01:42:41;485.25;;;462.38;;
52620;SDS011;38515;53.160;6.990;2024-01-11T01:45:11;487.95;;;465.02;;
52620;SDS011;38515;53.160;6.990;2024-01-11T01:47:43;483.80;;;461.35;;
52620;SDS011;38515;53.160;6.990;2024-01-11T01:50:10;443.52;;;423.20;;
52620;SDS011;38515;53.160;6.990;2024-01-11T01:52:38;415.65;;;397.13;;
52620;SDS011;38515;53.160;6.990;2024-01-11T01:55:07;402.92;;;383.70;;
52620;SDS011;38515;53.160;6.990;2024-01-11T01:57:35;409.58;;;389.60;;
52620;SDS011;38515;53.160;6.990;2024-01-11T02:00:02;407.77;;;388.42;;
52620;SDS011;38515;53.160;6.990;2024-01-11T02:02:30;395.70;;;377.17;;
52620;SDS011;38515;53.160;6.990;2024-01-11T02:04:57;421.35;;;401.42;;
52620;SDS011;38515;53.160;6.990;2024-01-11T02:07:26;401.85;;;383.73;;
52620;SDS011;38515;53.160;6.990;2024-01-11T02:09:51;421.25;;;401.23;;
52620;SDS011;38515;53.160;6.990;2024-01-11T02:12:17;397.00;;;378.70;;
52620;SDS011;38515;53.160;6.990;2024-01-11T02:14:43;423.90;;;404.90;;
52620;SDS011;38515;53.160;6.990;2024-01-11T02:17:09;404.42;;;386.23;;
52620;SDS011;38515;53.160;6.990;2024-01-11T02:19:35;417.50;;;396.90;;
52620;SDS011;38515;53.160;6.990;2024-01-11T02:22:02;405.75;;;386.90;;
52620;SDS011;38515;53.160;6.990;2024-01-11T02:24:33;412.73;;;393.55;;
52620;SDS011;38515;53.160;6.990;2024-01-11T02:26:59;412.58;;;393.17;;
52620;SDS011;38515;53.160;6.990;2024-01-11T02:29:29;424.48;;;404.05;;
52620;SDS011;38515;53.160;6.990;2024-01-11T02:31:55;431.95;;;411.33;;
52620;SDS011;38515;53.160;6.990;2024-01-11T02:34:26;422.95;;;403.77;;
52620;SDS011;38515;53.160;6.990;2024-01-11T02:36:52;409.60;;;391.25;;
52620;SDS011;38515;53.160;6.990;2024-01-11T02:39:19;407.63;;;388.92;;
52620;SDS011;38515;53.160;6.990;2024-01-11T02:41:47;414.20;;;395.40;;
52620;SDS011;38515;53.160;6.990;2024-01-11T02:44:15;406.55;;;387.65;;
52620;SDS011;38515;53.160;6.990;2024-01-11T02:46:40;401.10;;;382.38;;
52620;SDS011;38515;53.160;6.990;2024-01-11T02:49:06;405.88;;;386.95;;
52620;SDS011;38515;53.160;6.990;2024-01-11T02:51:32;440.63;;;420.30;;
52620;SDS011;38515;53.160;6.990;2024-01-11T02:53:57;427.80;;;407.50;;
52620;SDS011;38515;53.160;6.990;2024-01-11T02:56:23;427.48;;;408.10;;
52620;SDS011;38515;53.160;6.990;2024-01-11T02:58:49;362.08;;;345.15;;
52620;SDS011;38515;53.160;6.990;2024-01-11T03:01:15;367.65;;;351.65;;
52620;SDS011;38515;53.160;6.990;2024-01-11T03:03:40;364.95;;;348.02;;
52620;SDS011;38515;53.160;6.990;2024-01-11T03:06:09;384.35;;;367.55;;
52620;SDS011;38515;53.160;6.990;2024-01-11T03:08:35;379.23;;;362.10;;
52620;SDS011;38515;53.160;6.990;2024-01-11T03:11:00;350.13;;;334.52;;
52620;SDS011;38515;53.160;6.990;2024-01-11T03:13:26;359.35;;;343.50;;
52620;SDS011;38515;53.160;6.990;2024-01-11T03:15:52;379.88;;;362.77;;
52620;SDS011;38515;53.160;6.990;2024-01-11T03:18:18;503.92;;;479.58;;
52620;SDS011;38515;53.160;6.990;2024-01-11T03:20:43;462.75;;;440.23;;
52620;SDS011;38515;53.160;6.990;2024-01-11T03:23:09;434.52;;;412.48;;
52620;SDS011;38515;53.160;6.990;2024-01-11T03:25:35;446.88;;;425.95;;
52620;SDS011;38515;53.160;6.990;2024-01-11T03:28:01;426.88;;;407.13;;
52620;SDS011;38515;53.160;6.990;2024-01-11T03:30:27;444.77;;;423.52;;
52620;SDS011;38515;53.160;6.990;2024-01-11T03:32:53;447.63;;;426.38;;
52620;SDS011;38515;53.160;6.990;2024-01-11T03:35:19;448.00;;;426.73;;
52620;SDS011;38515;53.160;6.990;2024-01-11T03:37:46;458.38;;;436.67;;
52620;SDS011;38515;53.160;6.990;2024-01-11T03:40:12;451.52;;;429.67;;
52620;SDS011;38515;53.160;6.990;2024-01-11T03:42:38;449.33;;;428.20;;
52620;SDS011;38515;53.160;6.990;2024-01-11T03:45:04;461.40;;;439.48;;
52620;SDS011;38515;53.160;6.990;2024-01-11T03:47:30;470.50;;;447.98;;
52620;SDS011;38515;53.160;6.990;2024-01-11T03:49:55;471.70;;;448.25;;
52620;SDS011;38515;53.160;6.990;2024-01-11T03:52:22;455.90;;;433.63;;
52620;SDS011;38515;53.160;6.990;2024-01-11T03:54:47;479.90;;;456.95;;
52620;SDS011;38515;53.160;6.990;2024-01-11T03:57:13;475.30;;;451.88;;
52620;SDS011;38515;53.160;6.990;2024-01-11T03:59:40;496.65;;;472.92;;
52620;SDS011;38515;53.160;6.990;2024-01-11T04:02:09;509.75;;;484.23;;
52620;SDS011;38515;53.160;6.990;2024-01-11T04:04:34;521.35;;;494.40;;
52620;SDS011;38515;53.160;6.990;2024-01-11T04:07:00;520.78;;;495.63;;
52620;SDS011;38515;53.160;6.990;2024-01-11T04:09:26;515.90;;;489.08;;
52620;SDS011;38515;53.160;6.990;2024-01-11T04:11:51;495.40;;;470.80;;
52620;SDS011;38515;53.160;6.990;2024-01-11T04:14:17;493.83;;;468.83;;
52620;SDS011;38515;53.160;6.990;2024-01-11T04:16:43;471.67;;;448.00;;
52620;SDS011;38515;53.160;6.990;2024-01-11T04:19:09;478.13;;;454.30;;
52620;SDS011;38515;53.160;6.990;2024-01-11T04:21:35;488.85;;;462.98;;
52620;SDS011;38515;53.160;6.990;2024-01-11T04:24:03;485.33;;;460.10;;
52620;SDS011;38515;53.160;6.990;2024-01-11T04:26:29;531.80;;;503.02;;
52620;SDS011;38515;53.160;6.990;2024-01-11T04:28:55;528.17;;;499.83;;
52620;SDS011;38515;53.160;6.990;2024-01-11T04:31:23;526.63;;;498.02;;
52620;SDS011;38515;53.160;6.990;2024-01-11T04:33:49;534.50;;;505.50;;
52620;SDS011;38515;53.160;6.990;2024-01-11T04:36:14;556.20;;;526.05;;
52620;SDS011;38515;53.160;6.990;2024-01-11T04:38:40;580.80;;;548.50;;
52620;SDS011;38515;53.160;6.990;2024-01-11T04:41:09;585.47;;;553.38;;
52620;SDS011;38515;53.160;6.990;2024-01-11T04:43:39;575.08;;;542.35;;
52620;SDS011;38515;53.160;6.990;2024-01-11T04:46:19;579.13;;;546.55;;
52620;SDS011;38515;53.160;6.990;2024-01-11T04:48:46;583.47;;;550.10;;
52620;SDS011;38515;53.160;6.990;2024-01-11T04:51:12;584.40;;;551.05;;
52620;SDS011;38515;53.160;6.990;2024-01-11T04:53:40;583.67;;;550.33;;
52620;SDS011;38515;53.160;6.990;2024-01-11T04:56:07;593.15;;;559.25;;
52620;SDS011;38515;53.160;6.990;2024-01-11T04:58:37;560.58;;;528.17;;
52620;SDS011;38515;53.160;6.990;2024-01-11T05:01:05;568.13;;;535.90;;
52620;SDS011;38515;53.160;6.990;2024-01-11T05:03:31;555.75;;;523.65;;
52620;SDS011;38515;53.160;6.990;2024-01-11T05:05:57;542.53;;;511.75;;
52620;SDS011;38515;53.160;6.990;2024-01-11T05:08:24;525.95;;;497.50;;
52620;SDS011;38515;53.160;6.990;2024-01-11T05:10:50;532.85;;;502.50;;
52620;SDS011;38515;53.160;6.990;2024-01-11T05:13:17;523.60;;;495.15;;
52620;SDS011;38515;53.160;6.990;2024-01-11T05:15:43;505.85;;;478.48;;
52620;SDS011;38515;53.160;6.990;2024-01-11T05:18:09;463.13;;;439.83;;
52620;SDS011;38515;53.160;6.990;2024-01-11T05:20:35;481.95;;;455.90;;
52620;SDS011;38515;53.160;6.990;2024-01-11T05:23:01;481.40;;;455.40;;
52620;SDS011;38515;53.160;6.990;2024-01-11T05:25:27;481.00;;;455.00;;
52620;SDS011;38515;53.160;6.990;2024-01-11T05:27:53;469.58;;;444.25;;
52620;SDS011;38515;53.160;6.990;2024-01-11T05:30:18;470.17;;;445.23;;
52620;SDS011;38515;53.160;6.990;2024-01-11T05:32:44;494.67;;;467.05;;
52620;SDS011;38515;53.160;6.990;2024-01-11T05:35:10;466.85;;;441.77;;
52620;SDS011;38515;53.160;6.990;2024-01-11T05:37:36;479.05;;;454.38;;
52620;SDS011;38515;53.160;6.990;2024-01-11T05:40:02;487.75;;;462.73;;
52620;SDS011;38515;53.160;6.990;2024-01-11T05:42:28;465.60;;;441.85;;
52620;SDS011;38515;53.160;6.990;2024-01-11T05:44:53;470.75;;;445.65;;
52620;SDS011;38515;53.160;6.990;2024-01-11T05:47:19;510.70;;;484.00;;
52620;SDS011;38515;53.160;6.990;2024-01-11T05:49:45;490.30;;;465.33;;
52620;SDS011;38515;53.160;6.990;2024-01-11T05:52:11;506.65;;;479.77;;
52620;SDS011;38515;53.160;6.990;2024-01-11T05:54:36;493.17;;;467.05;;
52620;SDS011;38515;53.160;6.990;2024-01-11T05:57:02;497.30;;;471.45;;
52620;SDS011;38515;53.160;6.990;2024-01-11T05:59:28;462.13;;;439.00;;
52620;SDS011;38515;53.160;6.990;2024-01-11T06:01:53;473.23;;;449.45;;
52620;SDS011;38515;53.160;6.990;2024-01-11T06:04:19;482.40;;;457.30;;
52620;SDS011;38515;53.160;6.990;2024-01-11T06:06:45;464.92;;;440.63;;
52620;SDS011;38515;53.160;6.990;2024-01-11T06:09:11;466.70;;;443.33;;
52620;SDS011;38515;53.160;6.990;2024-01-11T06:11:36;468.42;;;444.38;;
52620;SDS011;38515;53.160;6.990;2024-01-11T06:14:02;460.17;;;436.33;;
52620;SDS011;38515;53.160;6.990;2024-01-11T06:16:28;469.00;;;444.73;;
52620;SDS011;38515;53.160;6.990;2024-01-11T06:18:53;459.77;;;435.05;;
52620;SDS011;38515;53.160;6.990;2024-01-11T06:21:19;452.08;;;428.45;;
52620;SDS011;38515;53.160;6.990;2024-01-11T06:23:45;451.83;;;427.60;;
52620;SDS011;38515;53.160;6.990;2024-01-11T06:26:10;443.88;;;421.13;;
52620;SDS011;38515;53.160;6.990;2024-01-11T06:28:36;463.55;;;440.00;;
52620;SDS011;38515;53.160;6.990;2024-01-11T06:31:02;312.75;;;297.83;;
52620;SDS011;38515;53.160;6.990;2024-01-11T06:33:28;300.35;;;286.05;;
52620;SDS011;38515;53.160;6.990;2024-01-11T06:35:54;379.27;;;361.20;;
52620;SDS011;38515;53.160;6.990;2024-01-11T06:38:20;403.55;;;383.58;;
52620;SDS011;38515;53.160;6.990;2024-01-11T06:40:47;441.23;;;418.35;;
52620;SDS011;38515;53.160;6.990;2024-01-11T06:43:13;489.50;;;464.73;;
52620;SDS011;38515;53.160;6.990;2024-01-11T06:45:40;522.28;;;494.85;;
52620;SDS011;38515;53.160;6.990;2024-01-11T06:48:07;532.33;;;504.88;;
52620;SDS011;38515;53.160;6.990;2024-01-11T06:50:33;519.63;;;493.02;;
52620;SDS011;38515;53.160;6.990;2024-01-11T06:52:59;519.92;;;493.30;;
52620;SDS011;38515;53.160;6.990;2024-01-11T06:55:26;525.80;;;499.45;;
52620;SDS011;38515;53.160;6.990;2024-01-11T06:57:51;508.20;;;482.25;;
52620;SDS011;38515;53.160;6.990;2024-01-11T07:00:17;514.25;;;487.90;;
52620;SDS011;38515;53.160;6.990;2024-01-11T07:02:43;505.08;;;479.30;;
52620;SDS011;38515;53.160;6.990;2024-01-11T07:05:09;506.73;;;481.30;;
52620;SDS011;38515;53.160;6.990;2024-01-11T07:07:34;469.85;;;447.58;;
52620;SDS011;38515;53.160;6.990;2024-01-11T07:10:00;446.75;;;423.73;;
52620;SDS011;38515;53.160;6.990;2024-01-11T07:12:26;467.23;;;443.30;;
52620;SDS011;38515;53.160;6.990;2024-01-11T07:14:52;448.25;;;426.05;;
52620;SDS011;38515;53.160;6.990;2024-01-11T07:17:18;434.35;;;413.05;;
52620;SDS011;38515;53.160;6.990;2024-01-11T07:19:43;416.92;;;397.10;;
52620;SDS011;38515;53.160;6.990;2024-01-11T07:22:09;422.15;;;401.20;;
52620;SDS011;38515;53.160;6.990;2024-01-11T07:24:35;483.63;;;459.80;;
52620;SDS011;38515;53.160;6.990;2024-01-11T07:27:03;537.30;;;509.10;;
52620;SDS011;38515;53.160;6.990;2024-01-11T07:29:35;571.58;;;541.28;;
52620;SDS011;38515;53.160;6.990;2024-01-11T07:32:01;563.28;;;532.83;;
52620;SDS011;38515;53.160;6.990;2024-01-11T07:34:28;598.03;;;566.40;;
52620;SDS011;38515;53.160;6.990;2024-01-11T07:36:54;595.47;;;563.95;;
52620;SDS011;38515;53.160;6.990;2024-01-11T07:39:21;598.03;;;565.30;;
52620;SDS011;38515;53.160;6.990;2024-01-11T07:41:50;553.65;;;526.78;;
52620;SDS011;38515;53.160;6.990;2024-01-11T07:44:16;563.47;;;536.65;;
52620;SDS011;38515;53.160;6.990;2024-01-11T07:46:42;577.78;;;549.78;;
52620;SDS011;38515;53.160;6.990;2024-01-11T07:49:08;557.83;;;531.42;;
52620;SDS011;38515;53.160;6.990;2024-01-11T07:51:35;558.65;;;532.47;;
52620;SDS011;38515;53.160;6.990;2024-01-11T07:54:01;546.88;;;521.65;;
52620;SDS011;38515;53.160;6.990;2024-01-11T07:56:27;562.05;;;535.25;;
52620;SDS011;38515;53.160;6.990;2024-01-11T07:58:54;569.30;;;542.80;;
52620;SDS011;38515;53.160;6.990;2024-01-11T08:01:20;416.10;;;393.45;;
52620;SDS011;38515;53.160;6.990;2024-01-11T08:03:45;529.83;;;504.27;;
52620;SDS011;38515;53.160;6.990;2024-01-11T08:06:12;427.33;;;408.23;;
52620;SDS011;38515;53.160;6.990;2024-01-11T08:08:38;471.20;;;449.40;;
52620;SDS011;38515;53.160;6.990;2024-01-11T08:11:04;437.33;;;417.13;;
52620;SDS011;38515;53.160;6.990;2024-01-11T08:13:31;428.60;;;408.27;;
52620;SDS011;38515;53.160;6.990;2024-01-11T08:15:58;414.80;;;394.98;;
52620;SDS011;38515;53.160;6.990;2024-01-11T08:18:26;397.60;;;378.73;;
52620;SDS011;38515;53.160;6.990;2024-01-11T08:20:52;383.83;;;365.35;;
52620;SDS011;38515;53.160;6.990;2024-01-11T08:23:19;336.65;;;319.60;;
52620;SDS011;38515;53.160;6.990;2024-01-11T08:25:45;381.45;;;362.88;;
52620;SDS011;38515;53.160;6.990;2024-01-11T08:28:11;370.80;;;353.17;;
52620;SDS011;38515;53.160;6.990;2024-01-11T08:30:37;387.70;;;367.70;;
52620;SDS011;38515;53.160;6.990;2024-01-11T08:33:02;355.92;;;337.90;;
52620;SDS011;38515;53.160;6.990;2024-01-11T08:35:29;320.83;;;305.27;;
52620;SDS011;38515;53.160;6.990;2024-01-11T08:37:55;317.88;;;303.33;;
52620;SDS011;38515;53.160;6.990;2024-01-11T08:40:20;302.52;;;288.17;;
52620;SDS011;38515;53.160;6.990;2024-01-11T08:42:46;307.83;;;292.90;;
52620;SDS011;38515;53.160;6.990;2024-01-11T08:45:12;283.48;;;270.50;;
52620;SDS011;38515;53.160;6.990;2024-01-11T08:47:43;267.50;;;253.73;;
52620;SDS011;38515;53.160;6.990;2024-01-11T08:50:14;268.42;;;255.18;;
52620;SDS011;38515;53.160;6.990;2024-01-11T08:52:40;214.15;;;203.57;;
52620;SDS011;38515;53.160;6.990;2024-01-11T08:55:09;274.67;;;260.40;;
52620;SDS011;38515;53.160;6.990;2024-01-11T08:57:35;216.73;;;206.52;;
52620;SDS011;38515;53.160;6.990;2024-01-11T09:00:04;207.20;;;197.00;;
52620;SDS011;38515;53.160;6.990;2024-01-11T09:02:31;189.63;;;179.50;;
52620;SDS011;38515;53.160;6.990;2024-01-11T09:04:57;161.80;;;153.63;;
52620;SDS011;38515;53.160;6.990;2024-01-11T09:07:23;173.30;;;164.20;;
52620;SDS011;38515;53.160;6.990;2024-01-11T09:09:48;161.45;;;153.30;;
52620;SDS011;38515;53.160;6.990;2024-01-11T09:12:14;168.27;;;160.15;;
52620;SDS011;38515;53.160;6.990;2024-01-11T09:14:40;175.00;;;165.63;;
52620;SDS011;38515;53.160;6.990;2024-01-11T09:17:05;173.23;;;164.35;;
52620;SDS011;38515;53.160;6.990;2024-01-11T09:19:34;204.35;;;194.50;;
52620;SDS011;38515;53.160;6.990;2024-01-11T09:22:00;211.35;;;201.27;;
52620;SDS011;38515;53.160;6.990;2024-01-11T09:24:25;230.38;;;220.00;;
52620;SDS011;38515;53.160;6.990;2024-01-11T09:26:51;254.73;;;242.63;;
52620;SDS011;38515;53.160;6.990;2024-01-11T09:29:17;226.15;;;215.90;;
52620;SDS011;38515;53.160;6.990;2024-01-11T09:31:43;223.75;;;212.35;;
52620;SDS011;38515;53.160;6.990;2024-01-11T09:34:09;277.23;;;264.48;;
52620;SDS011;38515;53.160;6.990;2024-01-11T09:36:36;263.75;;;251.60;;
52620;SDS011;38515;53.160;6.990;2024-01-11T09:39:04;269.55;;;256.92;;
52620;SDS011;38515;53.160;6.990;2024-01-11T09:41:30;275.35;;;261.60;;
52620;SDS011;38515;53.160;6.990;2024-01-11T09:43:57;306.25;;;292.15;;
52620;SDS011;38515;53.160;6.990;2024-01-11T09:46:25;324.33;;;310.33;;
52620;SDS011;38515;53.160;6.990;2024-01-11T09:48:53;366.23;;;350.40;;
52620;SDS011;38515;53.160;6.990;2024-01-11T09:51:20;449.58;;;429.15;;
52620;SDS011;38515;53.160;6.990;2024-01-11T09:53:48;452.23;;;430.27;;
52620;SDS011;38515;53.160;6.990;2024-01-11T09:56:16;470.02;;;448.38;;
52620;SDS011;38515;53.160;6.990;2024-01-11T09:58:44;452.58;;;431.08;;
52620;SDS011;38515;53.160;6.990;2024-01-11T10:01:15;446.05;;;424.70;;
52620;SDS011;38515;53.160;6.990;2024-01-11T10:03:42;431.85;;;411.92;;
52620;SDS011;38515;53.160;6.990;2024-01-11T10:06:09;416.45;;;397.15;;
52620;SDS011;38515;53.160;6.990;2024-01-11T10:08:35;402.52;;;384.00;;
52620;SDS011;38515;53.160;6.990;2024-01-11T10:11:02;400.60;;;382.67;;
52620;SDS011;38515;53.160;6.990;2024-01-11T10:13:29;391.20;;;373.50;;
52620;SDS011;38515;53.160;6.990;2024-01-11T10:16:05;393.20;;;375.35;;
52620;SDS011;38515;53.160;6.990;2024-01-11T10:18:33;441.02;;;420.92;;
52620;SDS011;38515;53.160;6.990;2024-01-11T10:20:59;513.33;;;489.27;;
52620;SDS011;38515;53.160;6.990;2024-01-11T10:23:24;512.67;;;488.27;;
52620;SDS011;38515;53.160;6.990;2024-01-11T10:25:50;527.25;;;502.38;;
52620;SDS011;38515;53.160;6.990;2024-01-11T10:28:16;505.70;;;481.50;;
52620;SDS011;38515;53.160;6.990;2024-01-11T10:30:46;462.20;;;440.98;;
52620;SDS011;38515;53.160;6.990;2024-01-11T10:33:12;476.30;;;453.13;;
52620;SDS011;38515;53.160;6.990;2024-01-11T10:35:38;476.85;;;455.00;;
52620;SDS011;38515;53.160;6.990;2024-01-11T10:38:04;466.90;;;445.50;;
52620;SDS011;38515;53.160;6.990;2024-01-11T10:40:34;439.10;;;419.30;;
52620;SDS011;38515;53.160;6.990;2024-01-11T10:43:01;438.48;;;418.83;;
52620;SDS011;38515;53.160;6.990;2024-01-11T10:45:30;441.83;;;421.77;;
52620;SDS011;38515;53.160;6.990;2024-01-11T10:48:03;433.70;;;414.23;;
52620;SDS011;38515;53.160;6.990;2024-01-11T10:50:36;427.13;;;407.58;;
52620;SDS011;38515;53.160;6.990;2024-01-11T10:55:41;396.27;;;378.77;;
52620;SDS011;38515;53.160;6.990;2024-01-11T10:58:07;405.95;;;387.90;;
52620;SDS011;38515;53.160;6.990;2024-01-11T11:00:35;381.35;;;364.02;;
52620;SDS011;38515;53.160;6.990;2024-01-11T11:03:03;357.95;;;342.40;;
52620;SDS011;38515;53.160;6.990;2024-01-11T11:05:31;345.48;;;330.55;;
52620;SDS011;38515;53.160;6.990;2024-01-11T11:08:03;353.48;;;338.10;;
52620;SDS011;38515;53.160;6.990;2024-01-11T11:10:31;344.05;;;328.67;;
52620;SDS011;38515;53.160;6.990;2024-01-11T11:12:59;350.60;;;335.50;;
52620;SDS011;38515;53.160;6.990;2024-01-11T11:15:26;343.33;;;327.77;;
52620;SDS011;38515;53.160;6.990;2024-01-11T11:17:53;317.42;;;303.90;;
52620;SDS011;38515;53.160;6.990;2024-01-11T11:20:19;308.05;;;294.77;;
52620;SDS011;38515;53.160;6.990;2024-01-11T11:23:02;306.42;;;293.42;;
52620;SDS011;38515;53.160;6.990;2024-01-11T11:25:30;309.77;;;295.80;;
52620;SDS011;38515;53.160;6.990;2024-01-11T11:27:56;221.57;;;211.00;;
52620;SDS011;38515;53.160;6.990;2024-01-11T11:30:22;204.00;;;195.25;;
52620;SDS011;38515;53.160;6.990;2024-01-11T11:32:48;245.25;;;234.52;;
52620;SDS011;38515;53.160;6.990;2024-01-11T11:35:14;207.20;;;196.77;;
52620;SDS011;38515;53.160;6.990;2024-01-11T11:37:39;199.00;;;189.95;;
52620;SDS011;38515;53.160;6.990;2024-01-11T11:40:06;252.68;;;241.32;;
52620;SDS011;38515;53.160;6.990;2024-01-11T11:42:37;306.27;;;292.45;;
52620;SDS011;38515;53.160;6.990;2024-01-11T11:45:05;336.27;;;320.83;;
52620;SDS011;38515;53.160;6.990;2024-01-11T11:47:36;321.73;;;307.75;;
52620;SDS011;38515;53.160;6.990;2024-01-11T11:52:33;290.50;;;277.35;;
52620;SDS011;38515;53.160;6.990;2024-01-11T11:55:02;272.95;;;260.45;;
52620;SDS011;38515;53.160;6.990;2024-01-11T11:57:28;278.52;;;266.08;;
52620;SDS011;38515;53.160;6.990;2024-01-11T11:59:57;272.63;;;260.30;;
52620;SDS011;38515;53.160;6.990;2024-01-11T12:02:24;275.15;;;263.27;;
52620;SDS011;38515;53.160;6.990;2024-01-11T12:04:51;269.88;;;257.50;;
52620;SDS011;38515;53.160;6.990;2024-01-11T12:07:19;239.27;;;228.60;;
52620;SDS011;38515;53.160;6.990;2024-01-11T12:09:46;256.83;;;245.38;;
52620;SDS011;38515;53.160;6.990;2024-01-11T12:12:12;274.02;;;261.45;;
52620;SDS011;38515;53.160;6.990;2024-01-11T12:14:38;328.95;;;314.63;;
52620;SDS011;38515;53.160;6.990;2024-01-11T12:17:05;296.45;;;283.05;;
52620;SDS011;38515;53.160;6.990;2024-01-11T12:19:34;229.57;;;219.07;;
52620;SDS011;38515;53.160;6.990;2024-01-11T12:22:00;148.98;;;141.43;;
52620;SDS011;38515;53.160;6.990;2024-01-11T12:24:27;160.63;;;152.73;;
52620;SDS011;38515;53.160;6.990;2024-01-11T12:26:55;208.88;;;198.95;;
52620;SDS011;38515;53.160;6.990;2024-01-11T12:29:22;251.15;;;239.43;;
52620;SDS011;38515;53.160;6.990;2024-01-11T12:31:48;267.05;;;255.38;;
52620;SDS011;38515;53.160;6.990;2024-01-11T12:34:15;183.63;;;175.52;;
52620;SDS011;38515;53.160;6.990;2024-01-11T12:36:41;207.18;;;197.23;;
52620;SDS011;38515;53.160;6.990;2024-01-11T12:39:07;188.10;;;179.30;;
52620;SDS011;38515;53.160;6.990;2024-01-11T12:41:35;131.73;;;125.03;;
52620;SDS011;38515;53.160;6.990;2024-01-11T12:44:01;163.25;;;155.20;;
52620;SDS011;38515;53.160;6.990;2024-01-11T12:46:27;274.88;;;262.40;;
52620;SDS011;38515;53.160;6.990;2024-01-11T12:48:53;300.20;;;286.52;;
52620;SDS011;38515;53.160;6.990;2024-01-11T12:51:19;327.58;;;312.48;;
52620;SDS011;38515;53.160;6.990;2024-01-11T12:53:46;357.63;;;341.10;;
52620;SDS011;38515;53.160;6.990;2024-01-11T12:56:16;388.05;;;369.85;;
52620;SDS011;38515;53.160;6.990;2024-01-11T12:58:43;383.75;;;365.88;;
52620;SDS011;38515;53.160;6.990;2024-01-11T13:01:08;477.35;;;454.00;;
52620;SDS011;38515;53.160;6.990;2024-01-11T13:03:35;473.83;;;450.58;;
52620;SDS011;38515;53.160;6.990;2024-01-11T13:06:02;494.90;;;471.60;;
52620;SDS011;38515;53.160;6.990;2024-01-11T13:08:30;468.80;;;446.20;;
52620;SDS011;38515;53.160;6.990;2024-01-11T13:10:56;498.65;;;474.17;;
52620;SDS011;38515;53.160;6.990;2024-01-11T13:13:22;533.88;;;507.35;;
52620;SDS011;38515;53.160;6.990;2024-01-11T13:15:48;537.67;;;511.08;;
52620;SDS011;38515;53.160;6.990;2024-01-11T13:18:15;518.28;;;492.02;;
52620;SDS011;38515;53.160;6.990;2024-01-11T13:20:41;540.88;;;513.72;;
52620;SDS011;38515;53.160;6.990;2024-01-11T13:23:17;519.97;;;492.77;;
52620;SDS011;38515;53.160;6.990;2024-01-11T13:25:48;520.45;;;493.92;;
52620;SDS011;38515;53.160;6.990;2024-01-11T13:28:14;495.83;;;469.85;;
52620;SDS011;38515;53.160;6.990;2024-01-11T13:30:41;535.30;;;508.05;;
52620;SDS011;38515;53.160;6.990;2024-01-11T13:33:08;487.33;;;462.58;;
52620;SDS011;38515;53.160;6.990;2024-01-11T13:35:35;541.22;;;514.35;;
52620;SDS011;38515;53.160;6.990;2024-01-11T13:38:02;527.80;;;500.83;;
52620;SDS011;38515;53.160;6.990;2024-01-11T13:40:28;504.63;;;478.38;;
52620;SDS011;38515;53.160;6.990;2024-01-11T13:42:55;425.27;;;404.63;;
52620;SDS011;38515;53.160;6.990;2024-01-11T13:45:23;392.20;;;373.33;;
52620;SDS011;38515;53.160;6.990;2024-01-11T13:47:50;361.40;;;344.02;;
52620;SDS011;38515;53.160;6.990;2024-01-11T13:50:18;334.48;;;318.83;;
52620;SDS011;38515;53.160;6.990;2024-01-11T13:52:45;321.52;;;306.77;;
52620;SDS011;38515;53.160;6.990;2024-01-11T13:55:11;300.48;;;287.08;;
52620;SDS011;38515;53.160;6.990;2024-01-11T13:57:37;339.13;;;323.02;;